Time,TemperatureF,DewpointF,PressureIn,WindDirection,WindDirectionDegrees,WindSpeedMPH,WindSpeedGustMPH,Humidity,HourlyPrecipIn,Conditions,Clouds,dailyrainin,SoftwareType,DateUTC
2013-04-18 00:13:00,42.6,39.6,30.26,North,0,0.0,-999.0,89,-99.99,,,0.00,Acu-Link.com,2013-04-18 04:13:00,
2013-04-18 00:28:00,42.1,39.4,30.27,NNW,337,0.0,-999.0,90,-99.99,,,0.00,Acu-Link.com,2013-04-18 04:28:00,
2013-04-18 00:44:00,41.5,38.8,30.28,North,0,0.0,-999.0,90,-99.99,,,0.00,Acu-Link.com,2013-04-18 04:44:00,
2013-04-18 00:59:00,41.2,39.1,30.28,NNW,337,0.0,-999.0,92,-99.99,,,0.00,Acu-Link.com,2013-04-18 04:59:00,
2013-04-18 01:14:00,40.8,38.4,30.28,NW,315,0.0,-999.0,91,-99.99,,,0.00,Acu-Link.com,2013-04-18 05:14:00,
2013-04-18 01:30:00,40.6,38.7,30.28,NNE,22,0.0,-999.0,93,-99.99,,,0.00,Acu-Link.com,2013-04-18 05:30:00,
2013-04-18 01:45:00,40.3,38.4,30.28,NNW,337,0.0,-999.0,93,-99.99,,,0.00,Acu-Link.com,2013-04-18 05:45:00,
2013-04-18 02:00:00,40.1,38.5,30.27,NNW,337,0.0,-999.0,94,-99.99,,,0.00,Acu-Link.com,2013-04-18 06:00:00,
2013-04-18 02:15:00,39.9,38.3,30.27,NNE,22,0.0,-999.0,94,-99.99,,,0.00,Acu-Link.com,2013-04-18 06:15:00,
2013-04-18 02:31:00,39.7,38.4,30.27,NNE,22,0.0,-999.0,95,-99.99,,,0.00,Acu-Link.com,2013-04-18 06:31:00,
2013-04-18 02:46:00,39.6,38.3,30.26,East,90,0.0,-999.0,95,-99.99,,,0.00,Acu-Link.com,2013-04-18 06:46:00,
2013-04-18 03:01:00,39.2,37.9,30.27,NNW,337,0.0,-999.0,95,-99.99,,,0.00,Acu-Link.com,2013-04-18 07:01:00,
2013-04-18 03:16:00,39.0,38.0,30.28,NNW,337,1.7,-999.0,96,-99.99,,,0.00,Acu-Link.com,2013-04-18 07:16:00,
2013-04-18 03:32:00,38.8,37.8,30.29,NW,315,0.0,-999.0,96,-99.99,,,0.00,Acu-Link.com,2013-04-18 07:32:00,
2013-04-18 03:47:00,39.0,38.0,30.31,NNW,337,0.0,-999.0,96,-99.99,,,0.00,Acu-Link.com,2013-04-18 07:47:00,
2013-04-18 04:33:00,38.8,37.8,30.31,North,0,0.0,-999.0,96,-99.99,,,0.00,Acu-Link.com,2013-04-18 08:33:00,
2013-04-18 04:54:00,38.3,37.3,30.30,WNW,292,0.0,-999.0,96,-99.99,,,0.00,Acu-Link.com,2013-04-18 08:54:00,
2013-04-18 05:09:00,37.9,36.9,30.29,NNW,337,0.0,-999.0,96,-99.99,,,0.00,Acu-Link.com,2013-04-18 09:09:00,
2013-04-18 05:24:00,37.8,36.8,30.31,ESE,112,0.0,-999.0,96,-99.99,,,0.00,Acu-Link.com,2013-04-18 09:24:00,
2013-04-18 05:39:00,37.6,36.6,30.31,NNE,22,0.0,-999.0,96,-99.99,,,0.00,Acu-Link.com,2013-04-18 09:39:00,
2013-04-18 05:55:00,37.4,36.6,30.32,NE,45,0.0,-999.0,97,-99.99,,,0.00,Acu-Link.com,2013-04-18 09:55:00,
2013-04-18 06:10:00,37.0,36.2,30.31,NNE,22,0.0,-999.0,97,-99.99,,,0.00,Acu-Link.com,2013-04-18 10:10:00,
2013-04-18 06:25:00,37.0,36.2,30.31,NNE,22,0.0,-999.0,97,-99.99,,,0.00,Acu-Link.com,2013-04-18 10:25:00,
2013-04-18 06:40:00,37.9,37.4,30.32,ESE,112,0.0,-999.0,98,-99.99,,,0.00,Acu-Link.com,2013-04-18 10:40:00,
2013-04-18 06:56:00,39.4,38.9,30.33,NW,315,0.0,-999.0,98,-99.99,,,0.00,Acu-Link.com,2013-04-18 10:56:00,
2013-04-18 07:11:00,42.6,40.4,30.33,West,270,0.0,-999.0,92,-99.99,,,0.00,Acu-Link.com,2013-04-18 11:11:00,
2013-04-18 07:26:00,45.9,41.0,30.34,NE,45,0.0,-999.0,83,-99.99,,,0.00,Acu-Link.com,2013-04-18 11:26:00,
2013-04-18 07:42:00,50.7,41.3,30.34,ESE,112,0.0,-999.0,70,-99.99,,,0.00,Acu-Link.com,2013-04-18 11:42:00,
2013-04-18 07:57:00,55.9,41.3,30.34,NNE,22,1.7,-999.0,58,-99.99,,,0.00,Acu-Link.com,2013-04-18 11:57:00,
2013-04-18 08:12:00,58.3,41.2,30.34,NE,45,3.2,-999.0,53,-99.99,,,0.00,Acu-Link.com,2013-04-18 12:12:00,
2013-04-18 08:27:00,60.3,40.5,30.34,NNE,22,3.2,-999.0,48,-99.99,,,0.00,Acu-Link.com,2013-04-18 12:27:00,
2013-04-18 08:43:00,61.2,40.3,30.34,North,0,2.2,-999.0,46,-99.99,,,0.00,Acu-Link.com,2013-04-18 12:43:00,
2013-04-18 08:58:00,57.4,37.9,30.33,ESE,112,4.2,-999.0,48,-99.99,,,0.00,Acu-Link.com,2013-04-18 12:58:00,
2013-04-18 09:13:00,57.0,36.4,30.33,ESE,112,1.7,-999.0,46,-99.99,,,0.00,Acu-Link.com,2013-04-18 13:13:00,
2013-04-18 09:28:00,57.7,35.4,30.33,East,90,4.2,-999.0,43,-99.99,,,0.00,Acu-Link.com,2013-04-18 13:28:00,
2013-04-18 09:43:00,58.6,36.8,30.34,East,90,4.7,-999.0,44,-99.99,,,0.00,Acu-Link.com,2013-04-18 13:43:00,
2013-04-18 09:58:00,57.7,35.4,30.33,SSE,157,3.2,-999.0,43,-99.99,,,0.00,Acu-Link.com,2013-04-18 13:58:00,
2013-04-18 10:13:00,57.7,35.4,30.34,South,180,4.7,-999.0,43,-99.99,,,0.00,Acu-Link.com,2013-04-18 14:13:00,
2013-04-18 10:28:00,57.7,35.4,30.35,SE,135,4.2,-999.0,43,-99.99,,,0.00,Acu-Link.com,2013-04-18 14:28:00,
2013-04-18 10:43:00,57.9,34.3,30.34,South,180,5.8,-999.0,41,-99.99,,,0.00,Acu-Link.com,2013-04-18 14:43:00,
2013-04-18 10:59:00,57.7,34.2,30.34,ESE,112,5.8,-999.0,41,-99.99,,,0.00,Acu-Link.com,2013-04-18 14:59:00,
2013-04-18 11:14:00,57.7,34.2,30.33,South,180,4.7,-999.0,41,-99.99,,,0.00,Acu-Link.com,2013-04-18 15:14:00,
2013-04-18 11:29:00,58.5,36.1,30.34,ENE,67,2.7,-999.0,43,-99.99,,,0.00,Acu-Link.com,2013-04-18 15:29:00,
2013-04-18 11:45:00,57.0,33.5,30.33,SSE,157,7.8,-999.0,41,-99.99,,,0.00,Acu-Link.com,2013-04-18 15:45:00,
2013-04-18 12:00:00,57.0,34.1,30.33,SSW,202,5.8,-999.0,42,-99.99,,,0.00,Acu-Link.com,2013-04-18 16:00:00,
2013-04-18 12:16:00,56.5,33.7,30.33,NE,45,5.8,-999.0,42,-99.99,,,0.00,Acu-Link.com,2013-04-18 16:16:00,
2013-04-18 12:31:00,55.2,35.3,30.33,SSE,157,2.7,-999.0,47,-99.99,,,0.00,Acu-Link.com,2013-04-18 16:31:00,
2013-04-18 13:16:00,54.9,35.6,30.30,SSW,202,4.2,-999.0,48,-99.99,,,0.00,Acu-Link.com,2013-04-18 17:16:00,
2013-04-18 13:32:00,54.5,36.7,30.30,SE,135,2.7,-999.0,51,-99.99,,,0.00,Acu-Link.com,2013-04-18 17:32:00,
2013-04-18 13:47:00,53.8,36.6,30.30,SSE,157,4.7,-999.0,52,-99.99,,,0.00,Acu-Link.com,2013-04-18 17:47:00,
2013-04-18 14:02:00,53.6,37.4,30.30,SE,135,5.3,-999.0,54,-99.99,,,0.00,Acu-Link.com,2013-04-18 18:02:00,
2013-04-18 14:18:00,53.1,39.2,30.29,ESE,112,4.2,-999.0,59,-99.99,,,0.00,Acu-Link.com,2013-04-18 18:18:00,
2013-04-18 14:33:00,54.5,40.9,30.29,South,180,3.7,-999.0,60,-99.99,,,0.00,Acu-Link.com,2013-04-18 18:33:00,
2013-04-18 14:48:00,52.7,38.8,30.28,NE,45,7.3,-999.0,59,-99.99,,,0.00,Acu-Link.com,2013-04-18 18:48:00,
2013-04-18 15:04:00,54.1,36.9,30.27,ENE,67,4.7,-999.0,52,-99.99,,,0.00,Acu-Link.com,2013-04-18 19:04:00,
2013-04-18 15:19:00,52.9,35.8,30.27,SSE,157,2.7,-999.0,52,-99.99,,,0.00,Acu-Link.com,2013-04-18 19:19:00,
2013-04-18 15:34:00,53.6,36.4,30.27,SSE,157,4.2,-999.0,52,-99.99,,,0.00,Acu-Link.com,2013-04-18 19:34:00,
2013-04-18 15:50:00,53.4,35.7,30.27,ESE,112,3.7,-999.0,51,-99.99,,,0.00,Acu-Link.com,2013-04-18 19:50:00,
2013-04-18 16:05:00,53.4,35.7,30.25,ESE,112,3.7,-999.0,51,-99.99,,,0.00,Acu-Link.com,2013-04-18 20:05:00,
2013-04-18 16:20:00,52.9,36.7,30.24,South,180,4.2,-999.0,54,-99.99,,,0.00,Acu-Link.com,2013-04-18 20:20:00,
2013-04-18 16:35:00,52.5,37.7,30.24,ESE,112,4.7,-999.0,57,-99.99,,,0.00,Acu-Link.com,2013-04-18 20:35:00,
2013-04-18 17:06:00,52.0,40.2,30.23,NNE,22,1.7,-999.0,64,-99.99,,,0.00,Acu-Link.com,2013-04-18 21:06:00,
2013-04-18 17:22:00,50.9,40.3,30.23,ESE,112,2.7,-999.0,67,-99.99,,,0.00,Acu-Link.com,2013-04-18 21:22:00,
2013-04-18 17:52:00,50.9,41.8,30.22,SE,135,1.7,-999.0,71,-99.99,,,0.00,Acu-Link.com,2013-04-18 21:52:00,
2013-04-18 18:07:00,50.5,42.5,30.20,SE,135,3.2,-999.0,74,-99.99,,,0.00,Acu-Link.com,2013-04-18 22:07:00,
2013-04-18 18:23:00,50.7,42.7,30.20,ESE,112,2.7,-999.0,74,-99.99,,,0.00,Acu-Link.com,2013-04-18 22:23:00,
2013-04-18 18:38:00,50.4,43.1,30.19,ENE,67,2.2,-999.0,76,-99.99,,,0.00,Acu-Link.com,2013-04-18 22:38:00,
2013-04-18 18:53:00,50.2,43.3,30.19,SSE,157,2.2,-999.0,77,-99.99,,,0.00,Acu-Link.com,2013-04-18 22:53:00,
2013-04-18 19:09:00,50.2,43.6,30.19,ENE,67,2.7,-999.0,78,-99.99,,,0.00,Acu-Link.com,2013-04-18 23:09:00,
2013-04-18 19:24:00,50.0,43.7,30.18,ENE,67,2.2,-999.0,79,-99.99,,,0.00,Acu-Link.com,2013-04-18 23:24:00,
2013-04-18 19:39:00,49.8,43.9,30.18,NNE,22,3.7,-999.0,80,-99.99,,,0.00,Acu-Link.com,2013-04-18 23:39:00,
2013-04-18 19:54:00,49.6,44.0,30.18,South,180,2.2,-999.0,81,-99.99,,,0.00,Acu-Link.com,2013-04-18 23:54:00,
2013-04-18 20:10:00,49.8,44.2,30.18,ENE,67,2.2,-999.0,81,-99.99,,,0.00,Acu-Link.com,2013-04-19 00:10:00,
2013-04-18 20:25:00,49.8,44.2,30.18,ESE,112,2.2,-999.0,81,-99.99,,,0.00,Acu-Link.com,2013-04-19 00:25:00,
2013-04-18 20:40:00,49.8,44.5,30.17,ESE,112,2.7,-999.0,82,-99.99,,,0.00,Acu-Link.com,2013-04-19 00:40:00,
2013-04-18 20:55:00,49.8,44.8,30.16,ESE,112,2.7,-999.0,83,-99.99,,,0.00,Acu-Link.com,2013-04-19 00:55:00,
2013-04-18 21:11:00,49.6,45.0,30.16,ESE,112,1.7,-999.0,84,-99.99,,,0.00,Acu-Link.com,2013-04-19 01:11:00,
2013-04-18 21:26:00,49.6,45.0,30.16,West,270,1.7,-999.0,84,-99.99,,,0.00,Acu-Link.com,2013-04-19 01:26:00,
2013-04-18 21:41:00,49.6,45.0,30.15,SSW,202,0.0,-999.0,84,-99.99,,,0.00,Acu-Link.com,2013-04-19 01:41:00,
2013-04-18 21:57:00,49.8,45.5,30.14,SE,135,1.1,-999.0,85,-99.99,,,0.00,Acu-Link.com,2013-04-19 01:57:00,
2013-04-18 22:12:00,49.8,45.8,30.13,SE,135,0.0,-999.0,86,-99.99,,,0.00,Acu-Link.com,2013-04-19 02:12:00,
2013-04-18 22:27:00,49.8,45.8,30.13,ESE,112,1.7,-999.0,86,-99.99,,,0.00,Acu-Link.com,2013-04-19 02:27:00,
2013-04-18 22:42:00,49.8,45.8,30.11,South,180,2.7,-999.0,86,-99.99,,,0.00,Acu-Link.com,2013-04-19 02:42:00,
2013-04-18 22:57:00,50.0,46.3,30.11,ESE,112,2.7,-999.0,87,-99.99,,,0.00,Acu-Link.com,2013-04-19 02:57:00,
2013-04-18 23:13:00,50.0,46.6,30.10,ESE,112,1.7,-999.0,88,-99.99,,,0.00,Acu-Link.com,2013-04-19 03:13:00,
2013-04-18 23:28:00,50.2,47.1,30.09,SSE,157,2.2,-999.0,89,-99.99,,,0.00,Acu-Link.com,2013-04-19 03:28:00,
2013-04-18 23:43:00,50.2,47.4,30.08,SSW,202,3.7,-999.0,90,-99.99,,,0.00,Acu-Link.com,2013-04-19 03:43:00,
2013-04-18 23:59:00,50.0,47.5,30.08,South,180,2.2,-999.0,91,-99.99,,,0.00,Acu-Link.com,2013-04-19 03:59:00,